Time;durP1;ratioP1;P1;durP2;ratioP2;P2;SDS_P1;SDS_P2;PMS_P1;PMS_P2;Temp;Humidity;BMP_temperature;BMP_pressure;BME280_temperature;BME280_humidity;BME280_pressure;Samples;Min_cycle;Max_cycle;Signal;HPM_P1;HPM_P2
2022/08/15 00:00:41;;;;;;;;;17.00;15.25;;;;;23.52;59.88;99925.50;5037965;28;45448;-55
2022/08/15 00:03:27;;;;;;;;;17.40;17.20;;;;;23.64;59.95;99934.13;5036838;28;45452;-60
2022/08/15 00:05:56;;;;;;;;;14.60;14.60;;;;;23.66;59.81;99934.66;5021408;28;46741;-57
2022/08/15 00:08:22;;;;;;;;;17.20;16.60;;;;;23.63;59.75;99926.06;5036482;28;45385;-57
2022/08/15 00:10:47;;;;;;;;;17.75;17.25;;;;;23.47;60.21;99908.84;5037915;28;45355;-58
2022/08/15 00:13:21;;;;;;;;;15.50;14.50;;;;;23.58;59.79;99935.41;5037883;28;45641;-55
2022/08/15 00:15:47;;;;;;;;;16.00;15.00;;;;;23.49;59.80;99904.59;5036503;28;45281;-55
2022/08/15 00:18:13;;;;;;;;;17.80;16.80;;;;;23.61;59.99;99920.78;5037724;28;45410;-57
2022/08/15 00:20:39;;;;;;;;;16.50;15.50;;;;;23.61;59.77;99920.78;5037422;28;45384;-56
2022/08/15 00:23:07;;;;;;;;;16.00;15.80;;;;;23.58;59.70;99918.59;5036421;28;45692;-58
2022/08/15 00:25:35;;;;;;;;;16.20;16.20;;;;;23.56;59.63;99915.31;5036896;28;46045;-56
2022/08/15 00:28:00;;;;;;;;;18.60;16.60;;;;;23.61;59.37;99928.34;5037470;28;45399;-56
2022/08/15 00:30:26;;;;;;;;;18.75;15.50;;;;;23.42;59.46;99896.63;5037709;28;45365;-56
2022/08/15 00:32:53;;;;;;;;;14.75;14.75;;;;;23.47;58.87;99897.63;5037537;28;45354;-55
2022/08/15 00:35:37;;;;;;;;;17.80;16.20;;;;;23.57;59.12;99914.16;5037349;28;46853;-56
2022/08/15 00:38:07;;;;;;;;;15.80;14.60;;;;;23.58;58.72;99915.81;5036189;28;45423;-59
2022/08/15 00:41:39;;;;;;;;;18.00;15.60;;;;;23.41;57.99;99891.31;5036097;28;45493;-57
2022/08/15 00:43:18;;;;;;;;;14.00;14.00;;;;;23.51;57.76;99909.84;5037236;28;45282;-55
2022/08/15 00:45:43;;;;;;;;;16.75;16.00;;;;;23.39;57.69;99888.88;5037080;28;45656;-56
2022/08/15 00:50:53;;;;;;;;;16.60;16.60;;;;;23.49;57.54;99907.38;5036780;28;45377;-57
2022/08/15 00:53:19;;;;;;;;;14.20;14.20;;;;;23.43;57.63;99905.84;5036031;28;45375;-58
2022/08/15 00:55:45;;;;;;;;;19.00;17.50;;;;;23.29;57.58;99889.09;5035451;28;46026;-56
2022/08/15 00:58:11;;;;;;;;;17.20;15.00;;;;;23.13;57.93;99880.25;5029457;28;45275;-56
2022/08/15 01:00:39;;;;;;;;;16.75;15.75;;;;;23.32;57.91;99905.25;5022275;27;45408;-59
2022/08/15 01:03:09;;;;;;;;;16.40;16.40;;;;;23.34;57.89;99907.75;5055226;28;45670;-54
2022/08/15 01:05:34;;;;;;;;;16.20;15.40;;;;;23.39;57.46;99910.44;5075768;28;46765;-54
2022/08/15 01:08:00;;;;;;;;;18.75;16.50;;;;;23.40;57.51;99910.13;5076879;27;45358;-57
2022/08/15 01:10:26;;;;;;;;;20.40;18.00;;;;;23.25;57.37;99879.66;5075780;28;45412;-54
2022/08/15 01:12:52;;;;;;;;;16.50;15.50;;;;;23.43;57.89;99911.47;5075820;28;45405;-56
2022/08/15 01:15:17;;;;;;;;;19.00;18.00;;;;;23.36;57.66;99909.09;5073979;28;45532;-55
2022/08/15 01:17:43;;;;;;;;;17.75;16.25;;;;;23.36;57.53;99906.28;5075814;28;45479;-57
2022/08/15 01:20:20;;;;;;;;;17.60;14.40;;;;;23.29;57.91;99898.31;5076500;28;45276;-56
2022/08/15 01:23:09;;;;;;;;;19.60;17.00;;;;;23.32;57.47;99908.06;5075710;28;45578;-57
2022/08/15 01:25:53;;;;;;;;;18.00;14.60;;;;;23.31;57.96;99903.63;5076669;28;46544;-58
2022/08/15 01:28:23;;;;;;;;;19.20;18.00;;;;;23.32;57.44;99905.25;5075019;28;45398;-56
2022/08/15 01:30:56;;;;;;;;;14.80;14.80;;;;;23.37;57.45;99912.72;5075269;28;45510;-56
2022/08/15 01:33:22;;;;;;;;;18.80;17.80;;;;;23.34;57.74;99904.97;5064945;28;45342;-57
2022/08/15 01:35:48;;;;;;;;;19.60;17.20;;;;;23.14;57.36;99879.09;5054807;28;46700;-56
2022/08/15 01:38:29;;;;;;;;;18.20;17.00;;;;;23.32;57.47;99908.06;5055576;28;45556;-56
2022/08/15 01:41:16;;;;;;;;;17.00;15.80;;;;;23.31;57.39;99912.00;5068792;28;45463;-60
2022/08/15 01:43:58;;;;;;;;;19.80;18.80;;;;;23.29;57.74;99911.50;5074769;28;45405;-54
2022/08/15 01:46:24;;;;;;;;;15.20;14.80;;;;;23.21;57.28;99893.47;5075180;28;46400;-57
2022/08/15 01:48:52;;;;;;;;;16.40;15.60;;;;;23.24;57.75;99900.41;5074880;28;45326;-56
2022/08/15 01:51:18;;;;;;;;;16.40;15.40;;;;;23.08;57.73;99877.56;5074914;28;45357;-59
2022/08/15 01:53:54;;;;;;;;;13.25;11.75;;;;;23.21;57.79;99906.66;5075452;28;45629;-57
2022/08/15 01:56:30;;;;;;;;;18.20;16.00;;;;;23.01;57.58;99866.84;5075059;28;45954;-55
2022/08/15 01:58:57;;;;;;;;;17.00;17.00;;;;;23.18;57.41;99904.47;5039043;28;45619;-53
2022/08/15 02:01:37;;;;;;;;;18.20;16.60;;;;;23.05;57.78;99881.84;5031197;28;45429;-55
2022/08/15 02:04:02;;;;;;;;;16.60;16.60;;;;;23.13;57.58;99897.88;5055095;28;45392;-54
2022/08/15 02:06:29;;;;;;;;;19.75;18.25;;;;;23.12;57.75;99896.19;5054059;28;47649;-57
2022/08/15 02:08:55;;;;;;;;;18.40;17.60;;;;;23.11;58.34;99893.75;5055752;28;45294;-55
2022/08/15 02:11:22;;;;;;;;;20.20;19.40;;;;;23.10;58.32;99892.91;5054721;28;45496;-59
2022/08/15 02:13:48;;;;;;;;;14.80;14.00;;;;;22.93;58.10;99871.22;5054085;28;45731;-57
2022/08/15 02:16:17;;;;;;;;;17.40;15.00;;;;;22.89;58.47;99867.38;5054460;28;46741;-58
2022/08/15 02:18:43;;;;;;;;;18.40;17.60;;;;;23.02;58.26;99896.47;5054408;28;45276;-56
2022/08/15 02:21:08;;;;;;;;;17.00;16.25;;;;;23.01;58.51;99881.63;5021517;27;45582;-55
2022/08/15 02:23:34;;;;;;;;;22.25;20.00;;;;;23.04;58.29;99882.97;5088367;27;45511;-59
2022/08/15 02:25:59;;;;;;;;;17.00;15.75;;;;;22.88;58.35;99858.19;5055809;28;45498;-52
2022/08/15 02:28:25;;;;;;;;;19.00;17.75;;;;;23.02;58.31;99885.28;5055345;28;45381;-55
2022/08/15 02:30:51;;;;;;;;;17.50;14.50;;;;;22.83;58.05;99849.91;5054617;28;45354;-57
2022/08/15 02:33:16;;;;;;;;;15.60;15.60;;;;;22.90;58.34;99859.84;5054750;28;45341;-57
2022/08/15 02:35:43;;;;;;;;;21.00;20.00;;;;;22.99;58.34;99881.13;5055234;28;46352;-54
2022/08/15 02:38:09;;;;;;;;;19.00;17.80;;;;;22.95;58.46;99873.72;5055275;28;45344;-56
2022/08/15 02:40:35;;;;;;;;;16.20;16.20;;;;;22.88;58.34;99869.38;5054349;28;45295;-56
2022/08/15 02:43:05;;;;;;;;;18.50;16.75;;;;;22.86;58.71;99870.84;5054825;28;45513;-54
2022/08/15 02:45:37;;;;;;;;;18.60;18.60;;;;;22.85;58.58;99870.00;5055503;28;45602;-57
2022/08/15 02:48:04;;;;;;;;;20.40;19.60;;;;;22.79;58.67;99862.88;5055478;28;45489;-56
2022/08/15 02:50:29;;;;;;;;;23.40;20.80;;;;;22.84;58.77;99867.53;5055523;28;45460;-59
2022/08/15 02:52:55;;;;;;;;;19.50;18.75;;;;;22.79;58.87;99860.06;5055607;28;45289;-58
2022/08/15 02:55:20;;;;;;;;;20.00;17.25;;;;;22.76;58.61;99855.13;5055498;28;46302;-55
2022/08/15 02:57:47;;;;;;;;;17.50;17.50;;;;;22.77;58.64;99870.75;5054884;28;45361;-57
2022/08/15 03:00:15;;;;;;;;;16.20;16.20;;;;;22.69;59.27;99858.34;5055308;28;45334;-54
2022/08/15 03:02:55;;;;;;;;;19.20;18.00;;;;;22.66;59.31;99866.53;5031036;28;46603;-55
2022/08/15 03:05:22;;;;;;;;;20.80;18.20;;;;;22.69;59.48;99868.72;5053146;28;46420;-54
2022/08/15 03:07:48;;;;;;;;;22.00;20.60;;;;;22.68;59.89;99867.06;5052520;28;45329;-58
2022/08/15 03:10:13;;;;;;;;;20.00;20.00;;;;;22.63;59.78;99861.59;5055522;28;45297;-57
2022/08/15 03:12:53;;;;;;;;;25.50;25.50;;;;;22.59;60.06;99853.00;5055319;28;45444;-56
2022/08/15 03:15:21;;;;;;;;;22.40;20.80;;;;;22.58;60.38;99849.38;5055227;28;46513;-59
2022/08/15 03:17:46;;;;;;;;;20.60;20.60;;;;;22.60;60.29;99852.69;5054956;28;45270;-55
2022/08/15 03:20:12;;;;;;;;;18.50;17.75;;;;;22.65;60.49;99859.28;5055184;28;45370;-54
2022/08/15 03:22:46;;;;;;;;;22.50;19.00;;;;;22.61;60.46;99856.31;5055369;28;45551;-59
2022/08/15 03:25:12;;;;;;;;;19.00;17.80;;;;;22.53;60.86;99848.66;5053551;28;46330;-57
2022/08/15 03:27:40;;;;;;;;;20.40;19.80;;;;;22.56;60.92;99851.66;5058127;28;45405;-56
2022/08/15 03:30:07;;;;;;;;;19.80;18.40;;;;;22.57;60.66;99858.09;5058003;28;45377;-55
2022/08/15 03:32:47;;;;;;;;;21.40;21.40;;;;;22.53;61.03;99846.72;5058873;28;45382;-56
2022/08/15 03:35:13;;;;;;;;;24.60;23.40;;;;;22.46;61.13;99841.50;5056927;28;46672;-55
2022/08/15 03:37:38;;;;;;;;;22.50;20.00;;;;;22.36;61.16;99824.16;5058565;28;45729;-56
2022/08/15 03:40:04;;;;;;;;;22.25;22.00;;;;;22.49;61.19;99848.44;5058093;28;45410;-58
2022/08/15 03:42:30;;;;;;;;;21.60;21.60;;;;;22.44;61.05;99843.81;5058544;28;45369;-56
2022/08/15 03:44:56;;;;;;;;;22.00;21.25;;;;;22.40;61.26;99844.75;5058116;28;45402;-56
2022/08/15 03:47:21;;;;;;;;;21.50;21.50;;;;;22.44;61.33;99851.34;5058408;28;45423;-57
2022/08/15 03:49:47;;;;;;;;;22.00;20.25;;;;;22.42;61.11;99853.63;5058095;28;45294;-57
2022/08/15 03:52:13;;;;;;;;;26.20;25.20;;;;;22.40;61.07;99848.34;5056754;28;45338;-55
2022/08/15 03:54:39;;;;;;;;;21.00;19.75;;;;;22.36;60.99;99844.53;5057862;28;45703;-55
2022/08/15 03:57:05;;;;;;;;;20.50;20.25;;;;;22.29;61.24;99847.75;5055970;28;45594;-53
2022/08/15 03:59:31;;;;;;;;;22.40;20.20;;;;;22.26;61.49;99837.22;5056788;28;45808;-55
2022/08/15 04:01:56;;;;;;;;;21.25;18.75;;;;;22.04;61.45;99818.41;5057083;28;45532;-58
2022/08/15 04:04:22;;;;;;;;;22.50;22.50;;;;;21.97;61.77;99812.41;5057680;28;46636;-55
2022/08/15 04:06:47;;;;;;;;;17.25;16.75;;;;;22.14;61.68;99839.72;5057809;28;45241;-55
2022/08/15 04:09:13;;;;;;;;;26.75;23.50;;;;;22.15;61.10;99819.00;5056557;28;45215;-56
2022/08/15 04:11:38;;;;;;;;;19.75;17.25;;;;;22.24;61.09;99825.50;5035501;28;45633;-54
2022/08/15 04:14:06;;;;;;;;;19.50;19.25;;;;;22.19;61.38;99834.00;5057722;28;45798;-59
2022/08/15 04:16:32;;;;;;;;;25.80;23.00;;;;;22.23;61.00;99829.44;5055278;28;45392;-55
2022/08/15 04:18:58;;;;;;;;;18.40;18.00;;;;;22.25;60.71;99817.97;5055791;28;45856;-56
2022/08/15 04:21:24;;;;;;;;;21.00;18.00;;;;;22.30;60.54;99829.03;5056721;28;45775;-57
2022/08/15 04:23:50;;;;;;;;;19.80;19.80;;;;;22.19;60.73;99822.81;5055957;28;45898;-55
2022/08/15 04:26:16;;;;;;;;;25.00;18.50;;;;;22.24;60.69;99827.50;5057396;28;45516;-54
2022/08/15 04:28:43;;;;;;;;;20.00;18.60;;;;;22.09;61.15;99825.84;5057579;28;45495;-56
2022/08/15 04:31:14;;;;;;;;;19.40;19.20;;;;;22.09;60.99;99842.63;5057699;28;45290;-56
2022/08/15 04:33:39;;;;;;;;;22.40;18.60;;;;;21.90;61.28;99815.63;5057499;28;46772;-56
2022/08/15 04:36:10;;;;;;;;;19.00;17.50;;;;;22.07;61.35;99840.13;5057256;28;45389;-53
2022/08/15 04:38:42;;;;;;;;;19.80;19.80;;;;;22.11;61.26;99840.31;5057101;28;45430;-56
2022/08/15 04:41:08;;;;;;;;;19.80;17.40;;;;;22.10;61.18;99831.13;5055932;28;45354;-55
2022/08/15 04:43:35;;;;;;;;;24.80;22.40;;;;;21.98;61.10;99814.06;5055781;28;46125;-52
2022/08/15 04:46:01;;;;;;;;;24.20;20.60;;;;;22.07;61.10;99835.38;5057506;28;45374;-58
2022/08/15 04:48:26;;;;;;;;;21.75;18.00;;;;;22.04;61.56;99833.19;5038972;28;45295;-54
2022/08/15 04:50:53;;;;;;;;;24.75;23.50;;;;;21.92;61.77;99816.97;5057318;28;45315;-55
2022/08/15 04:53:21;;;;;;;;;24.80;23.60;;;;;22.00;61.79;99834.13;5057151;28;47145;-59
2022/08/15 04:55:47;;;;;;;;;20.80;19.20;;;;;22.01;61.70;99825.44;5038979;28;45419;-53
2022/08/15 04:58:13;;;;;;;;;23.50;21.50;;;;;21.79;61.36;99796.28;5056034;28;45268;-53
2022/08/15 05:00:40;;;;;;;;;18.60;18.20;;;;;21.94;61.30;99823.06;5055681;28;45732;-56
2022/08/15 05:03:09;;;;;;;;;23.40;20.80;;;;;21.94;61.55;99817.47;5055522;28;46286;-58
2022/08/15 05:05:46;;;;;;;;;20.80;19.40;;;;;21.96;61.56;99822.75;5056603;28;45449;-56
2022/08/15 05:08:11;;;;;;;;;23.80;19.20;;;;;21.90;61.34;99812.81;5057294;28;45464;-52
2022/08/15 05:10:38;;;;;;;;;23.00;20.50;;;;;21.91;61.09;99812.53;5056837;28;45271;-57
2022/08/15 05:13:18;;;;;;;;;23.40;19.80;;;;;21.86;61.39;99804.25;5055220;28;46154;-55
2022/08/15 05:15:44;;;;;;;;;21.20;21.20;;;;;21.85;61.32;99810.97;5088839;27;45417;-57
2022/08/15 05:18:09;;;;;;;;;20.60;20.60;;;;;21.83;61.60;99804.88;5055708;28;45444;-54
2022/08/15 05:20:35;;;;;;;;;22.00;21.50;;;;;21.66;61.54;99797.06;5055720;28;45465;-58
2022/08/15 05:23:05;;;;;;;;;23.00;23.00;;;;;21.77;61.45;99806.13;5055550;28;46430;-53
2022/08/15 05:25:32;;;;;;;;;18.00;18.00;;;;;21.83;61.50;99812.41;5056556;28;45214;-55
2022/08/15 05:27:58;;;;;;;;;21.80;21.80;;;;;21.80;61.15;99811.06;5035396;28;45392;-56
2022/08/15 05:30:23;;;;;;;;;21.50;20.50;;;;;21.73;61.13;99811.50;5036757;28;45611;-59
2022/08/15 05:33:03;;;;;;;;;20.50;19.25;;;;;21.74;60.95;99810.34;5034703;28;48125;-55
2022/08/15 05:35:30;;;;;;;;;20.00;19.40;;;;;21.75;60.66;99812.00;5036395;28;45308;-54
2022/08/15 05:37:56;;;;;;;;;22.40;21.60;;;;;21.72;60.63;99807.03;5036092;28;45307;-54
2022/08/15 05:40:22;;;;;;;;;19.80;18.60;;;;;21.61;60.69;99777.66;5035477;28;45544;-53
2022/08/15 05:42:58;;;;;;;;;21.00;18.75;;;;;21.79;60.59;99803.84;5034644;28;46501;-54
2022/08/15 05:45:38;;;;;;;;;17.20;16.20;;;;;21.77;60.44;99804.13;5035141;28;45475;-57
2022/08/15 05:48:03;;;;;;;;;18.40;17.00;;;;;21.79;60.19;99806.63;5034492;28;45487;-55
2022/08/15 05:50:30;;;;;;;;;16.75;16.75;;;;;21.62;60.00;99784.88;5035908;28;45409;-53
2022/08/15 05:53:16;;;;;;;;;16.00;16.00;;;;;21.76;60.06;99812.81;5035656;28;45874;-57
2022/08/15 05:55:48;;;;;;;;;18.00;17.00;;;;;21.73;59.99;99814.28;5034807;28;45412;-53
2022/08/15 05:58:40;;;;;;;;;17.60;16.60;;;;;21.71;59.75;99819.34;5036139;28;45237;-57
2022/08/15 06:01:24;;;;;;;;;18.40;17.20;;;;;21.62;59.66;99808.03;5034544;28;45459;-53
2022/08/15 06:03:54;;;;;;;;;17.20;16.80;;;;;21.65;59.52;99814.97;4993137;28;45630;-55
2022/08/15 06:06:22;;;;;;;;;15.20;14.80;;;;;21.62;59.49;99816.41;5046146;28;45266;-56
2022/08/15 06:08:55;;;;;;;;;18.00;16.60;;;;;21.56;59.37;99816.81;5013233;28;45346;-55
2022/08/15 06:11:27;;;;;;;;;17.00;15.80;;;;;21.42;59.60;99791.69;5015032;28;45463;-52
2022/08/15 06:14:01;;;;;;;;;15.80;15.00;;;;;21.55;59.41;99818.78;5030592;28;45485;-54
2022/08/15 06:16:48;;;;;;;;;14.60;14.20;;;;;21.61;59.55;99820.34;5047035;28;45349;-52
2022/08/15 06:19:21;;;;;;;;;22.80;16.80;;;;;21.36;59.54;99769.44;5015657;28;45307;-51
2022/08/15 06:21:52;;;;;;;;;19.20;16.00;;;;;21.62;59.14;99808.03;5030905;28;45503;-58
2022/08/15 06:24:37;;;;;;;;;15.20;13.80;;;;;21.50;58.94;99799.38;5047427;28;46789;-56
2022/08/15 06:27:02;;;;;;;;;18.00;16.40;;;;;21.69;59.55;99815.16;5042348;28;45647;-55
2022/08/15 06:29:40;;;;;;;;;16.75;15.00;;;;;21.76;59.10;99813.66;5035450;28;45288;-57
2022/08/15 06:32:27;;;;;;;;;17.60;17.60;;;;;21.66;58.65;99791.47;5065900;28;45459;-57
2022/08/15 06:35:04;;;;;;;;;16.00;16.00;;;;;21.76;58.51;99813.66;5048179;28;47084;-60
2022/08/15 06:37:42;;;;;;;;;15.80;15.80;;;;;21.79;58.64;99813.03;5050972;28;45751;-53
2022/08/15 06:40:30;;;;;;;;;14.80;14.80;;;;;21.64;58.59;99783.44;5035150;28;45370;-61
2022/08/15 06:42:56;;;;;;;;;20.20;17.40;;;;;21.62;58.95;99780.09;5041686;28;45468;-62
2022/08/15 06:45:28;;;;;;;;;16.40;16.40;;;;;21.85;59.11;99815.72;5067433;28;45922;-59
2022/08/15 06:47:59;;;;;;;;;18.40;17.80;;;;;21.83;58.90;99799.28;5066846;28;45486;-62
2022/08/15 06:50:28;;;;;;;;;17.80;16.80;;;;;21.83;59.01;99802.09;5069696;27;46246;-61
2022/08/15 06:52:57;;;;;;;;;18.20;15.60;;;;;21.74;59.02;99789.97;5054681;28;45557;-59
2022/08/15 06:55:22;;;;;;;;;21.60;17.80;;;;;21.67;59.67;99790.38;5030789;27;45993;-62
2022/08/15 06:58:00;;;;;;;;;21.50;21.50;;;;;21.80;59.78;99813.88;5037377;28;45279;-59
2022/08/15 07:00:36;;;;;;;;;18.40;17.80;;;;;21.71;59.45;99787.81;5055219;28;45438;-58
2022/08/15 07:03:41;;;;;;;;;16.80;16.80;;;;;21.88;59.56;99803.94;5059552;28;45692;-61
2022/08/15 07:06:06;;;;;;;;;19.40;17.40;;;;;21.73;59.38;99771.56;5057013;28;46343;-62
2022/08/15 07:08:50;;;;;;;;;21.00;21.00;;;;;21.86;59.74;99804.25;5049153;28;45405;-59
2022/08/15 07:11:27;;;;;;;;;17.60;16.00;;;;;21.79;59.88;99809.41;5043404;28;45229;-61
2022/08/15 07:14:24;;;;;;;;;18.00;17.80;;;;;21.61;59.85;99783.22;5056585;28;45543;-59
2022/08/15 07:17:12;;;;;;;;;20.60;16.80;;;;;21.78;59.80;99804.97;5057612;28;46386;-57
2022/08/15 07:19:38;;;;;;;;;15.40;15.40;;;;;21.76;59.92;99807.22;5058157;28;45379;-60
2022/08/15 07:22:04;;;;;;;;;18.40;17.80;;;;;21.82;60.29;99813.56;5040436;28;45388;-60
2022/08/15 07:24:30;;;;;;;;;15.75;14.50;;;;;21.87;60.38;99807.88;5057352;28;45531;-59
2022/08/15 07:27:06;;;;;;;;;14.60;14.40;;;;;21.90;60.11;99810.03;5057067;28;46513;-57
2022/08/15 07:29:37;;;;;;;;;16.60;16.60;;;;;21.97;59.79;99818.00;5057072;28;45256;-58
2022/08/15 07:32:14;;;;;;;;;24.20;17.60;;;;;22.04;59.80;99824.00;5058322;28;45383;-61
2022/08/15 07:35:09;;;;;;;;;17.40;15.40;;;;;22.04;59.43;99830.41;5057198;28;45204;-61
2022/08/15 07:37:36;;;;;;;;;19.20;17.60;;;;;22.04;59.31;99816.44;5056234;28;46514;-60
2022/08/15 07:40:24;;;;;;;;;18.60;18.60;;;;;22.16;59.32;99827.09;5056941;28;45255;-58
2022/08/15 07:42:50;;;;;;;;;15.60;15.60;;;;;22.26;58.93;99816.81;5057177;28;45346;-56
2022/08/15 07:45:19;;;;;;;;;17.20;17.20;;;;;22.24;58.83;99808.75;5057495;28;45608;-61
2022/08/15 07:48:00;;;;;;;;;17.80;15.00;;;;;22.34;58.44;99811.31;5056499;28;45896;-61
2022/08/15 07:51:07;;;;;;;;;15.40;14.60;;;;;22.48;58.38;99816.84;5057789;28;45411;-60
2022/08/15 07:53:32;;;;;;;;;13.80;13.80;;;;;22.37;57.22;99781.06;5052209;28;45372;-60
2022/08/15 07:56:15;;;;;;;;;15.25;13.00;;;;;22.48;57.24;99805.66;5057087;28;45659;-61
2022/08/15 07:58:41;;;;;;;;;13.20;13.20;;;;;22.43;57.43;99814.19;5057518;28;46474;-61
2022/08/15 08:01:09;;;;;;;;;11.40;11.40;;;;;22.52;57.42;99821.84;5039811;28;45395;-58
2022/08/15 08:03:35;;;;;;;;;8.00;7.00;;;;;22.48;57.05;99810.44;5058116;28;45345;-61
2022/08/15 08:06:06;;;;;;;;;12.75;12.75;;;;;22.39;56.87;99785.22;5040129;28;45633;-60
2022/08/15 08:08:41;;;;;;;;;14.80;13.80;;;;;22.61;56.90;99809.59;5021237;27;46873;-62
2022/08/15 08:11:10;;;;;;;;;11.80;11.80;;;;;22.74;56.80;99813.47;5061044;27;45454;-63
2022/08/15 08:14:02;;;;;;;;;10.60;10.60;;;;;22.74;56.49;99810.69;5031581;28;45423;-62
2022/08/15 08:16:51;;;;;;;;;15.60;13.80;;;;;22.70;56.42;99787.31;5050991;28;45787;-60
2022/08/15 08:19:28;;;;;;;;;11.20;11.00;;;;;22.92;56.45;99809.97;5052043;28;46738;-60
2022/08/15 08:22:23;;;;;;;;;11.60;10.60;;;;;22.95;56.30;99824.16;5035114;28;45602;-62
2022/08/15 08:25:07;;;;;;;;;12.20;11.00;;;;;22.77;56.32;99788.84;5072327;28;45647;-62
2022/08/15 08:27:51;;;;;;;;;13.00;11.20;;;;;23.02;55.66;99815.34;5045929;28;45773;-61
2022/08/15 08:30:22;;;;;;;;;11.40;10.80;;;;;22.85;56.30;99800.06;5036201;28;45792;-62
2022/08/15 08:32:52;;;;;;;;;13.20;12.40;;;;;22.93;56.55;99820.06;5035436;28;45925;-63
2022/08/15 08:35:33;;;;;;;;;12.80;11.60;;;;;22.95;56.32;99817.75;5067261;28;45396;-65
2022/08/15 08:38:05;;;;;;;;;16.20;13.00;;;;;23.02;56.78;99824.53;5030947;28;46121;-63
2022/08/15 08:43:55;;;;;;;;;9.80;9.40;;;;;22.95;56.66;99814.97;5072434;28;45986;-63
2022/08/15 08:46:45;;;;;;;;;10.00;9.40;;;;;23.07;56.44;99815.22;5050772;28;45907;-62
2022/08/15 08:49:19;;;;;;;;;9.40;8.60;;;;;23.17;55.74;99814.13;5073548;28;45561;-62
2022/08/15 08:52:03;;;;;;;;;8.40;8.40;;;;;23.24;55.87;99805.25;5071988;28;46316;-61
2022/08/15 08:54:57;;;;;;;;;15.80;10.40;;;;;23.17;55.24;99771.31;5069338;28;45423;-61
2022/08/15 08:57:24;;;;;;;;;10.00;9.00;;;;;23.29;54.93;99788.31;5055515;28;45579;-55
2022/08/15 09:00:06;;;;;;;;;9.80;9.80;;;;;23.36;55.16;99790.69;5068445;28;45774;-64
2022/08/15 09:02:39;;;;;;;;;12.00;9.20;;;;;23.42;55.10;99775.41;5066948;28;47610;-63
2022/08/15 09:05:14;;;;;;;;;10.60;9.00;;;;;23.68;54.67;99805.47;5068261;28;45525;-63
2022/08/15 09:07:43;;;;;;;;;6.20;6.20;;;;;23.68;54.22;99808.28;5055767;28;45572;-61
2022/08/15 09:10:09;;;;;;;;;10.80;9.00;;;;;23.80;54.47;99807.69;5056757;27;45971;-60
2022/08/15 09:15:28;;;;;;;;;7.80;7.80;;;;;23.63;54.89;99786.03;5069564;28;45820;-62
2022/08/15 09:17:57;;;;;;;;;10.00;7.20;;;;;23.82;54.57;99820.22;5071518;28;45867;-62
2022/08/15 09:20:26;;;;;;;;;9.00;9.00;;;;;23.83;55.17;99809.81;5070570;28;45569;-62
2022/08/15 09:22:52;;;;;;;;;8.20;8.20;;;;;23.99;54.66;99807.41;5069608;28;45928;-61
2022/08/15 09:25:18;;;;;;;;;6.75;6.75;;;;;24.06;54.57;99804.13;5071069;28;45443;-60
2022/08/15 09:28:20;;;;;;;;;6.80;6.80;;;;;24.03;54.80;99800.00;5071197;28;45794;-58
2022/08/15 09:30:46;;;;;;;;;7.40;7.40;;;;;23.98;54.95;99802.94;5071749;28;45485;-62
2022/08/15 09:33:24;;;;;;;;;7.00;6.00;;;;;23.81;55.10;99782.13;5067337;28;46723;-63
2022/08/15 09:36:01;;;;;;;;;6.20;5.00;;;;;23.83;55.08;99805.06;5070164;28;45375;-64
2022/08/15 09:38:42;;;;;;;;;6.40;5.20;;;;;23.91;54.99;99808.22;5069274;28;45549;-62
2022/08/15 09:41:20;;;;;;;;;3.80;3.80;;;;;23.99;55.09;99813.00;5071840;28;45524;-63
2022/08/15 09:44:38;;;;;;;;;2.00;0.40;;;;;24.03;54.84;99827.19;5072484;28;45417;-63
2022/08/15 09:47:17;;;;;;;;;3.00;3.00;;;;;23.94;55.28;99808.38;5026701;27;45426;-64
2022/08/15 09:49:52;;;;;;;;;4.60;4.40;;;;;24.23;54.55;99826.59;5072481;28;45818;-63
2022/08/15 09:52:39;;;;;;;;;3.20;3.20;;;;;24.25;54.57;99817.03;5072828;28;45791;-64
2022/08/15 09:55:17;;;;;;;;;3.20;3.20;;;;;24.44;53.64;99830.75;5071199;28;46171;-63
2022/08/15 09:57:51;;;;;;;;;3.00;3.00;;;;;24.25;53.65;99808.63;5067000;28;45425;-63
2022/08/15 10:00:41;;;;;;;;;3.60;3.60;;;;;24.38;53.85;99832.88;5066731;27;46027;-65
2022/08/15 10:03:20;;;;;;;;;4.40;3.40;;;;;24.46;54.39;99826.47;5051617;28;45567;-60
2022/08/15 10:05:59;;;;;;;;;4.00;4.00;;;;;24.43;53.88;99826.31;5051914;28;45816;-60
2022/08/15 10:08:27;;;;;;;;;4.00;3.00;;;;;24.45;53.82;99826.81;5035117;28;45459;-60
2022/08/15 10:10:54;;;;;;;;;3.40;3.40;;;;;24.32;54.00;99792.97;5001927;28;45922;-65
2022/08/15 10:13:28;;;;;;;;;4.20;4.20;;;;;24.13;54.00;99784.88;5039498;28;46185;-62
2022/08/15 10:15:55;;;;;;;;;4.00;4.00;;;;;24.27;54.56;99828.75;5029549;28;46349;-58
2022/08/15 10:18:23;;;;;;;;;4.60;3.80;;;;;24.14;55.20;99833.34;5040221;28;45325;-61
2022/08/15 10:20:52;;;;;;;;;4.80;4.00;;;;;23.88;54.70;99778.84;5051138;28;45687;-64
2022/08/15 10:23:20;;;;;;;;;6.60;5.80;;;;;24.12;55.49;99825.25;5050510;28;45822;-64
2022/08/15 10:25:46;;;;;;;;;5.80;5.80;;;;;24.11;55.16;99837.63;5065313;28;45436;-63
2022/08/15 10:28:12;;;;;;;;;6.80;6.00;;;;;24.00;55.48;99833.47;5050157;28;45898;-65
2022/08/15 10:30:45;;;;;;;;;7.00;7.00;;;;;23.86;55.61;99836.38;5049234;28;45890;-63
2022/08/15 10:33:27;;;;;;;;;6.60;5.20;;;;;23.80;56.11;99833.69;5060372;28;45414;-63
2022/08/15 10:35:55;;;;;;;;;6.80;5.80;;;;;23.77;55.95;99834.38;5065003;28;46071;-64
2022/08/15 10:38:25;;;;;;;;;8.40;6.80;;;;;23.69;56.64;99835.13;5068785;27;45437;-65
2022/08/15 10:41:28;;;;;;;;;7.00;7.00;;;;;23.78;56.34;99826.78;5069385;28;45734;-64
2022/08/15 10:44:03;;;;;;;;;5.80;5.80;;;;;23.72;56.38;99822.47;5068867;28;45587;-64
2022/08/15 10:46:49;;;;;;;;;7.00;7.00;;;;;23.58;56.50;99797.38;5059674;28;46556;-62
2022/08/15 10:49:22;;;;;;;;;7.60;7.60;;;;;23.80;56.94;99836.50;5066035;28;45804;-61
2022/08/15 10:52:12;;;;;;;;;8.20;7.00;;;;;23.84;57.84;99836.69;5070199;28;45777;-63
2022/08/15 10:54:41;;;;;;;;;10.00;7.80;;;;;23.81;59.94;99835.34;5071731;28;45421;-63
2022/08/15 10:57:08;;;;;;;;;5.40;5.40;;;;;23.42;59.48;99773.44;5071397;28;46581;-63
2022/08/15 10:59:36;;;;;;;;;6.00;6.00;;;;;23.89;59.53;99832.91;5059532;28;45546;-62
2022/08/15 11:02:24;;;;;;;;;7.80;6.20;;;;;23.89;59.55;99844.94;5032812;28;45465;-62
2022/08/15 11:04:50;;;;;;;;;7.00;7.00;;;;;24.00;58.59;99833.47;5044220;28;45774;-61
2022/08/15 11:07:21;;;;;;;;;7.00;5.25;;;;;23.86;58.25;99800.78;5057589;28;46691;-62
2022/08/15 11:10:00;;;;;;;;;6.00;6.00;;;;;24.08;57.98;99832.69;5058101;27;45956;-63
2022/08/15 11:12:28;;;;;;;;;6.40;6.40;;;;;24.05;58.28;99825.72;5069373;27;45855;-61
2022/08/15 11:14:58;;;;;;;;;5.80;5.80;;;;;24.09;58.59;99826.75;5053377;28;45635;-61
2022/08/15 11:17:27;;;;;;;;;5.00;5.00;;;;;24.14;58.17;99834.19;5056588;28;46014;-62
2022/08/15 11:19:57;;;;;;;;;6.20;6.20;;;;;24.19;58.40;99831.22;5046591;28;45576;-62
2022/08/15 11:22:37;;;;;;;;;5.60;5.60;;;;;24.18;57.64;99835.16;5100473;27;45523;-60
2022/08/15 11:25:11;;;;;;;;;7.20;7.20;;;;;24.00;57.63;99808.22;5067991;28;45587;-62
2022/08/15 11:27:36;;;;;;;;;7.40;5.80;;;;;24.14;57.86;99833.34;5084562;27;45519;-63
2022/08/15 11:30:04;;;;;;;;;7.00;7.00;;;;;24.15;57.36;99834.97;5067121;28;45967;-64
2022/08/15 11:32:36;;;;;;;;;6.40;6.40;;;;;23.85;57.20;99785.09;5067251;28;45458;-58
2022/08/15 11:35:29;;;;;;;;;6.20;5.60;;;;;24.10;56.84;99830.38;5067643;28;45978;-60
2022/08/15 11:37:56;;;;;;;;;7.20;7.20;;;;;24.16;56.80;99831.06;5059164;28;46581;-60
2022/08/15 11:40:21;;;;;;;;;7.00;7.00;;;;;24.03;56.74;99816.81;5067364;28;45710;-57
2022/08/15 11:42:47;;;;;;;;;6.50;6.50;;;;;24.06;56.43;99823.75;5064251;28;46124;-57
2022/08/15 11:45:21;;;;;;;;;7.50;7.50;;;;;24.20;56.87;99830.06;5027893;28;45885;-54
2022/08/15 11:47:55;;;;;;;;;7.80;6.40;;;;;24.32;56.53;99839.78;5050205;28;45938;-55
2022/08/15 11:50:23;;;;;;;;;7.00;6.00;;;;;24.45;56.50;99838.81;5037510;28;45928;-54
2022/08/15 11:52:50;;;;;;;;;8.80;7.60;;;;;24.52;56.23;99835.53;5052901;28;45853;-56